Terminal Aerodrome Forecast
Issued by NWS Louisville, KY

Home | Current Version | Previous Version | Text Only | Print | Product List | Glossary On
Versions: 1 2 3 4 5 6 7 8 9 10 11 12
686
FTUS43 KLMK 041720
TAFLEX
TAF
KLEX 041720Z 0418/0518 30007KT P6SM BKN035
     FM042100 33006KT P6SM SCT035
     FM050100 VRB04KT P6SM SKC
     FM051300 19004KT P6SM SKC=

USA.gov is the U.S. government's official web portal to all federal, state and local government web resources and services.